createdAt,value
2023-01-19T00:00:56.301Z,5.90
2023-01-19T00:03:23.206Z,5.80
2023-01-19T00:05:50.211Z,5.80
2023-01-19T00:08:17.654Z,5.80
2023-01-19T00:10:51.059Z,5.80
2023-01-19T00:13:18.083Z,5.90
2023-01-19T00:15:45.060Z,5.90
2023-01-19T00:18:12.064Z,5.90
2023-01-19T00:20:40.780Z,5.90
2023-01-19T00:23:08.379Z,5.90
2023-01-19T00:25:36.270Z,5.90
2023-01-19T00:28:03.209Z,5.90
2023-01-19T00:30:30.253Z,5.90
2023-01-19T00:32:57.727Z,5.80
2023-01-19T00:35:25.199Z,5.80
2023-01-19T00:37:52.151Z,5.80
2023-01-19T00:40:19.140Z,5.80
2023-01-19T00:42:48.433Z,5.80
2023-01-19T00:45:18.973Z,5.90
2023-01-19T00:47:47.716Z,5.90
2023-01-19T00:50:19.799Z,5.90
2023-01-19T00:52:46.867Z,5.90
2023-01-19T00:55:15.829Z,5.90
2023-01-19T00:57:43.535Z,5.90
2023-01-19T01:00:13.043Z,5.90
2023-01-19T01:02:41.732Z,5.90
2023-01-19T01:05:09.568Z,5.90
2023-01-19T01:07:45.310Z,5.90
2023-01-19T01:10:18.851Z,5.90
2023-01-19T01:13:19.980Z,5.90
2023-01-19T01:15:33.729Z,5.90
2023-01-19T01:18:02.756Z,5.90
2023-01-19T01:20:30.586Z,5.90
2023-01-19T01:22:58.903Z,5.90
2023-01-19T01:25:27.987Z,6.00
2023-01-19T01:27:55.499Z,5.90
2023-01-19T01:30:22.665Z,6.00
2023-01-19T01:32:50.158Z,6.00
2023-01-19T01:35:17.275Z,6.00
2023-01-19T01:37:44.410Z,6.00
2023-01-19T01:40:14.277Z,6.00
2023-01-19T01:42:42.643Z,6.00
2023-01-19T01:45:39.974Z,6.00
2023-01-19T01:48:14.024Z,6.00
2023-01-19T01:51:11.068Z,6.00
2023-01-19T01:53:39.374Z,6.00
2023-01-19T01:56:12.912Z,6.00
2023-01-19T01:58:40.338Z,6.00
2023-01-19T02:01:26.796Z,6.00
2023-01-19T02:03:57.874Z,6.00
2023-01-19T02:06:25.815Z,6.00
2023-01-19T02:09:20.534Z,6.00
2023-01-19T02:12:05.873Z,6.00
2023-01-19T02:14:34.650Z,6.10
2023-01-19T02:17:01.709Z,6.10
2023-01-19T02:19:38.054Z,6.10
2023-01-19T02:22:14.273Z,6.10
2023-01-19T02:24:41.731Z,6.00
2023-01-19T02:27:09.707Z,6.00
2023-01-19T02:29:36.789Z,6.00
2023-01-19T02:32:05.818Z,6.00
2023-01-19T02:34:33.287Z,5.90
2023-01-19T02:37:06.814Z,5.90
2023-01-19T02:39:45.932Z,5.90
2023-01-19T02:42:19.072Z,5.80
2023-01-19T02:44:49.458Z,5.90
2023-01-19T02:47:16.789Z,5.90
2023-01-19T02:49:43.851Z,5.90
2023-01-19T02:52:20.264Z,5.90
2023-01-19T02:55:12.534Z,5.80
2023-01-19T02:57:51.286Z,5.80
2023-01-19T03:00:30.108Z,5.80
2023-01-19T03:03:19.344Z,5.80
2023-01-19T03:06:06.760Z,5.80
2023-01-19T03:08:57.604Z,5.70
2023-01-19T03:11:29.977Z,5.70
2023-01-19T03:14:22.030Z,5.70
2023-01-19T03:16:55.726Z,5.70
2023-01-19T03:19:27.308Z,5.70
2023-01-19T03:22:00.463Z,5.60
2023-01-19T03:24:31.707Z,5.60
2023-01-19T03:27:08.795Z,5.60
2023-01-19T03:29:39.203Z,5.60
2023-01-19T03:32:14.748Z,5.60
2023-01-19T03:34:44.286Z,5.60
2023-01-19T03:37:13.540Z,5.60
2023-01-19T03:39:40.743Z,5.70
2023-01-19T03:42:14.250Z,5.70
2023-01-19T03:44:42.810Z,5.70
2023-01-19T03:47:11.911Z,5.70
2023-01-19T03:49:41.453Z,5.70
2023-01-19T03:52:08.557Z,5.70
2023-01-19T03:54:35.930Z,5.60
2023-01-19T03:57:02.904Z,5.60
2023-01-19T03:59:29.819Z,5.60
2023-01-19T04:01:56.885Z,5.60
2023-01-19T04:04:25.606Z,5.50
2023-01-19T04:06:52.702Z,5.60
2023-01-19T04:09:20.254Z,5.60
2023-01-19T04:11:47.168Z,5.60
2023-01-19T04:14:14.089Z,5.60
2023-01-19T04:16:41.014Z,5.70
2023-01-19T04:19:07.928Z,5.70
2023-01-19T04:21:35.274Z,5.60
2023-01-19T04:24:03.221Z,5.60
2023-01-19T04:26:30.145Z,5.60
2023-01-19T04:28:57.964Z,5.60
2023-01-19T04:31:24.928Z,5.60
2023-01-19T04:33:51.815Z,5.60
2023-01-19T04:36:18.689Z,5.60
2023-01-19T04:38:46.732Z,5.60
2023-01-19T04:41:13.639Z,5.60
2023-01-19T04:43:41.008Z,5.60
2023-01-19T04:46:08.007Z,5.60
2023-01-19T04:48:34.994Z,5.60
2023-01-19T04:51:01.904Z,5.60
2023-01-19T04:53:28.850Z,5.50
2023-01-19T04:55:55.865Z,5.50
2023-01-19T04:58:23.083Z,5.50
2023-01-19T05:00:51.311Z,5.50
2023-01-19T05:03:19.551Z,5.40
2023-01-19T05:05:46.967Z,5.40
2023-01-19T05:08:14.076Z,5.40
2023-01-19T05:10:42.017Z,5.50
2023-01-19T05:13:08.925Z,5.50
2023-01-19T05:15:35.871Z,5.50
2023-01-19T05:18:02.733Z,5.50
2023-01-19T05:20:29.754Z,5.50
2023-01-19T05:22:56.681Z,5.60
2023-01-19T05:25:23.685Z,5.60
2023-01-19T05:27:50.621Z,5.70
2023-01-19T05:30:18.130Z,5.70
2023-01-19T05:32:45.049Z,5.70
2023-01-19T05:35:13.602Z,5.70
2023-01-19T05:37:41.084Z,5.70
2023-01-19T05:40:09.324Z,5.70
2023-01-19T05:42:37.027Z,5.70
2023-01-19T05:45:05.279Z,5.70
2023-01-19T05:47:32.309Z,5.70
2023-01-19T05:49:59.344Z,5.60
2023-01-19T05:52:26.344Z,5.60
2023-01-19T05:54:55.164Z,5.60
2023-01-19T05:57:22.673Z,5.60
2023-01-19T05:59:49.725Z,5.60
2023-01-19T06:02:16.799Z,5.60
2023-01-19T06:04:43.776Z,5.60
2023-01-19T06:07:10.688Z,5.60
2023-01-19T06:09:37.577Z,5.60
2023-01-19T06:12:04.873Z,5.60
2023-01-19T06:14:32.533Z,5.60
2023-01-19T06:17:00.650Z,5.60
2023-01-19T06:19:27.711Z,5.60
2023-01-19T06:21:54.632Z,5.60
2023-01-19T06:24:21.983Z,5.60
2023-01-19T06:26:49.119Z,5.60
2023-01-19T06:29:16.444Z,5.70
2023-01-19T06:31:43.439Z,5.70
2023-01-19T06:34:10.733Z,5.70
2023-01-19T06:36:38.600Z,5.70
2023-01-19T06:39:06.162Z,5.70
2023-01-19T06:41:33.924Z,5.70
2023-01-19T06:44:01.216Z,5.70
2023-01-19T06:46:28.287Z,5.70
2023-01-19T06:48:55.363Z,5.70
2023-01-19T06:51:23.311Z,5.70
2023-01-19T06:53:50.599Z,5.60
2023-01-19T06:56:17.580Z,5.70
2023-01-19T06:58:46.876Z,5.70
2023-01-19T07:01:14.030Z,5.60
2023-01-19T07:03:42.231Z,5.60
2023-01-19T07:06:09.229Z,5.60
2023-01-19T07:08:37.291Z,5.60
2023-01-19T07:11:24.592Z,5.60
2023-01-19T07:13:55.521Z,5.60
2023-01-19T07:16:23.613Z,5.60
2023-01-19T07:18:53.111Z,5.50
2023-01-19T07:21:20.029Z,5.50
2023-01-19T07:23:55.209Z,5.50
2023-01-19T07:26:25.129Z,5.50
2023-01-19T07:28:52.871Z,5.50
2023-01-19T07:31:22.550Z,5.50
2023-01-19T07:33:50.098Z,5.50
2023-01-19T07:36:19.472Z,5.50
2023-01-19T07:38:49.117Z,5.50
2023-01-19T07:41:16.122Z,5.50
2023-01-19T07:43:43.083Z,5.50
2023-01-19T07:46:10.057Z,5.50
2023-01-19T07:48:37.081Z,5.50
2023-01-19T07:51:15.943Z,5.50
2023-01-19T07:53:42.901Z,5.50
2023-01-19T07:56:10.312Z,5.50
2023-01-19T07:58:37.409Z,5.40
2023-01-19T08:01:09.720Z,5.40
2023-01-19T08:03:40.834Z,5.40
2023-01-19T08:06:14.242Z,5.50
2023-01-19T08:08:41.745Z,5.50
2023-01-19T08:11:08.641Z,5.50
2023-01-19T08:13:37.632Z,5.50
2023-01-19T08:16:05.077Z,5.50
2023-01-19T08:18:31.962Z,5.60
2023-01-19T08:21:02.563Z,5.70
2023-01-19T08:23:29.430Z,5.80
2023-01-19T08:25:56.378Z,5.90
2023-01-19T08:28:27.899Z,5.90
2023-01-19T08:30:55.487Z,6.00
2023-01-19T08:33:24.173Z,6.00
2023-01-19T08:35:54.942Z,6.10
2023-01-19T08:38:21.874Z,6.10
2023-01-19T08:40:52.081Z,6.20
2023-01-19T08:43:19.176Z,6.80
2023-01-19T08:45:51.731Z,7.70
2023-01-19T08:48:26.473Z,8.70
2023-01-19T08:50:53.701Z,9.70
2023-01-19T08:53:23.457Z,10.70
2023-01-19T08:55:54.634Z,11.40
2023-01-19T08:58:24.593Z,11.40
2023-01-19T09:00:52.796Z,11.00
2023-01-19T09:03:22.787Z,11.40
2023-01-19T09:05:52.376Z,12.00
2023-01-19T09:08:19.320Z,12.50
2023-01-19T09:10:51.301Z,12.30
2023-01-19T09:13:27.006Z,12.40
2023-01-19T09:15:56.137Z,12.20
2023-01-19T09:18:23.535Z,11.80
2023-01-19T09:20:50.831Z,11.30
2023-01-19T09:23:20.239Z,10.80
2023-01-19T09:25:48.094Z,10.60
2023-01-19T09:28:19.512Z,11.70
2023-01-19T09:30:48.273Z,13.10
2023-01-19T09:33:17.177Z,14.40
2023-01-19T09:35:45.685Z,15.70
2023-01-19T09:38:15.627Z,16.90
2023-01-19T09:40:50.129Z,17.80
2023-01-19T09:43:20.715Z,18.90
2023-01-19T09:46:14.393Z,19.70
2023-01-19T09:48:50.274Z,20.30
2023-01-19T09:51:23.086Z,20.50
2023-01-19T09:54:09.460Z,20.40
2023-01-19T09:56:36.493Z,20.50
2023-01-19T09:59:23.172Z,20.00
2023-01-19T10:02:07.851Z,20.10
2023-01-19T10:04:41.842Z,20.60
2023-01-19T10:07:20.727Z,21.20
2023-01-19T10:10:04.147Z,21.50
2023-01-19T10:12:51.012Z,21.20
2023-01-19T10:15:52.563Z,21.60
2023-01-19T10:18:35.831Z,22.00
2023-01-19T10:21:11.636Z,22.00
2023-01-19T10:23:57.142Z,22.20
2023-01-19T10:26:44.315Z,22.40
2023-01-19T10:29:35.301Z,22.00
2023-01-19T10:32:10.364Z,21.00
2023-01-19T10:34:37.341Z,19.80
2023-01-19T10:37:32.177Z,19.40
2023-01-19T10:40:14.802Z,18.60
2023-01-19T10:42:42.625Z,17.50
2023-01-19T10:45:21.159Z,17.20
2023-01-19T10:47:51.601Z,17.20
2023-01-19T10:50:27.664Z,16.50
2023-01-19T10:53:04.403Z,16.00
2023-01-19T10:55:35.662Z,16.20
2023-01-19T10:58:02.644Z,16.40
2023-01-19T11:00:34.880Z,16.00
2023-01-19T11:03:02.398Z,15.40
2023-01-19T11:05:35.300Z,14.60
2023-01-19T11:08:30.963Z,14.60
2023-01-19T11:11:08.795Z,15.10
2023-01-19T11:13:39.244Z,15.30
2023-01-19T11:16:10.447Z,14.70
2023-01-19T11:18:41.025Z,14.60
2023-01-19T11:21:14.139Z,15.40
2023-01-19T11:23:54.096Z,16.40
2023-01-19T11:26:33.309Z,17.00
2023-01-19T11:29:02.934Z,17.40
2023-01-19T11:31:29.849Z,17.50
2023-01-19T11:34:02.391Z,17.30
2023-01-19T11:36:32.460Z,17.00
2023-01-19T11:39:22.533Z,16.20
2023-01-19T11:41:57.204Z,15.50
2023-01-19T11:44:31.101Z,14.70
2023-01-19T11:47:04.989Z,14.00
2023-01-19T11:49:46.695Z,13.30
2023-01-19T11:52:33.669Z,12.80
2023-01-19T11:55:15.439Z,12.60
2023-01-19T11:57:52.842Z,12.60
2023-01-19T12:00:34.429Z,12.80
2023-01-19T12:03:23.923Z,12.90
2023-01-19T12:06:00.014Z,12.70
2023-01-19T12:08:39.641Z,12.50
2023-01-19T12:11:11.001Z,12.30
2023-01-19T12:13:40.653Z,12.40
2023-01-19T12:16:30.990Z,12.60
2023-01-19T12:19:03.663Z,12.80
2023-01-19T12:21:30.595Z,12.80
2023-01-19T12:24:23.801Z,12.80
2023-01-19T12:26:58.986Z,12.90
2023-01-19T12:29:34.754Z,13.00
2023-01-19T12:32:13.854Z,12.60
2023-01-19T12:35:01.328Z,12.10
2023-01-19T12:37:31.195Z,11.60
2023-01-19T12:40:08.369Z,11.20
2023-01-19T12:42:35.399Z,11.00
2023-01-19T12:45:08.735Z,11.10
2023-01-19T12:47:39.018Z,11.30
2023-01-19T12:50:19.034Z,11.70
2023-01-19T12:52:58.059Z,11.90
2023-01-19T12:55:31.570Z,12.00
2023-01-19T12:58:08.077Z,12.30
2023-01-19T13:00:40.475Z,12.20
2023-01-19T13:03:16.655Z,12.30
2023-01-19T13:05:43.477Z,12.40
2023-01-19T13:08:10.356Z,12.60
2023-01-19T13:10:57.123Z,12.60
2023-01-19T13:13:25.708Z,12.70
2023-01-19T13:15:56.174Z,12.80
2023-01-19T13:18:41.327Z,12.90
2023-01-19T13:21:10.161Z,12.80
2023-01-19T13:23:51.966Z,12.70
2023-01-19T13:26:51.525Z,12.70
2023-01-19T13:29:42.155Z,12.90
2023-01-19T13:32:19.687Z,13.00
2023-01-19T13:34:57.761Z,13.00
2023-01-19T13:37:36.000Z,12.70
2023-01-19T13:40:03.664Z,12.40
2023-01-19T13:42:36.186Z,12.20
2023-01-19T13:45:29.308Z,12.00
2023-01-19T13:47:59.605Z,11.80
2023-01-19T13:50:28.178Z,11.60
2023-01-19T13:52:59.225Z,11.40
2023-01-19T13:55:28.538Z,11.30
2023-01-19T13:57:56.324Z,11.30
2023-01-19T14:00:29.432Z,11.30
2023-01-19T14:03:18.613Z,11.30
2023-01-19T14:05:45.714Z,11.30
2023-01-19T14:08:18.082Z,11.20
2023-01-19T14:10:46.106Z,11.20
2023-01-19T14:13:18.707Z,11.30
2023-01-19T14:15:47.624Z,11.40
2023-01-19T14:18:14.486Z,11.30
2023-01-19T14:20:42.272Z,11.40
2023-01-19T14:23:49.375Z,11.50
2023-01-19T14:26:46.088Z,11.60
2023-01-19T14:29:22.188Z,11.60
2023-01-19T14:32:01.243Z,11.60
2023-01-19T14:34:43.279Z,11.60
2023-01-19T14:37:28.137Z,11.60
2023-01-19T14:39:57.875Z,11.40
2023-01-19T14:42:33.410Z,11.40
2023-01-19T14:45:02.822Z,11.40
2023-01-19T14:47:38.606Z,11.20
2023-01-19T14:50:25.212Z,11.00
2023-01-19T14:52:59.499Z,10.70
2023-01-19T14:55:38.174Z,10.50
2023-01-19T14:58:16.609Z,10.20
2023-01-19T15:00:47.090Z,10.00
2023-01-19T15:03:14.853Z,9.80
2023-01-19T15:05:48.355Z,9.60
2023-01-19T15:08:25.208Z,9.30
2023-01-19T15:10:52.136Z,9.20
2023-01-19T15:13:20.878Z,9.00
2023-01-19T15:15:49.878Z,8.90
2023-01-19T15:18:22.374Z,8.80
2023-01-19T15:20:49.332Z,8.80
2023-01-19T15:23:19.213Z,8.80
2023-01-19T15:25:46.260Z,8.70
2023-01-19T15:28:20.053Z,8.60
2023-01-19T15:30:47.231Z,8.60
2023-01-19T15:33:22.319Z,8.50
2023-01-19T15:35:49.634Z,8.40
2023-01-19T15:38:19.493Z,8.30
2023-01-19T15:40:51.188Z,8.30
2023-01-19T15:43:18.776Z,8.20
2023-01-19T15:45:57.377Z,8.10
2023-01-19T15:48:24.320Z,8.00
2023-01-19T15:50:51.220Z,8.00
2023-01-19T15:53:20.269Z,7.90
2023-01-19T15:56:00.038Z,7.90
2023-01-19T15:58:26.979Z,7.80
2023-01-19T16:00:56.127Z,7.70
2023-01-19T16:03:24.093Z,7.70
2023-01-19T16:05:51.038Z,7.70
2023-01-19T16:08:18.002Z,7.60
2023-01-19T16:10:47.498Z,7.50
2023-01-19T16:13:14.411Z,7.40
2023-01-19T16:15:42.559Z,7.40
2023-01-19T16:18:12.546Z,7.40
2023-01-19T16:20:39.594Z,7.30
2023-01-19T16:23:15.205Z,7.30
2023-01-19T16:25:42.733Z,7.30
2023-01-19T16:28:12.139Z,7.20
2023-01-19T16:30:39.257Z,7.20
2023-01-19T16:33:06.425Z,7.10
2023-01-19T16:35:33.356Z,7.10
2023-01-19T16:38:00.242Z,7.00
2023-01-19T16:40:27.171Z,7.00
2023-01-19T16:42:54.054Z,7.00
2023-01-19T16:45:20.998Z,6.90
2023-01-19T16:47:50.704Z,6.90
2023-01-19T16:50:17.902Z,6.90
2023-01-19T16:52:45.391Z,6.80
2023-01-19T16:55:16.645Z,6.80
2023-01-19T16:57:46.001Z,6.70
2023-01-19T17:00:13.821Z,6.70
2023-01-19T17:02:40.904Z,6.70
2023-01-19T17:07:49.048Z,6.60
2023-01-19T17:10:18.291Z,6.60
2023-01-19T17:12:45.181Z,6.60
2023-01-19T17:15:13.976Z,6.60
2023-01-19T17:17:42.884Z,6.60
2023-01-19T17:20:10.869Z,6.60
2023-01-19T17:22:41.081Z,6.50
2023-01-19T17:25:08.473Z,6.50
2023-01-19T17:27:36.860Z,6.50
2023-01-19T17:30:04.585Z,6.40
2023-01-19T17:32:34.021Z,6.30
2023-01-19T17:35:03.260Z,6.20
2023-01-19T17:37:30.247Z,6.10
2023-01-19T17:39:59.498Z,6.00
2023-01-19T17:42:28.426Z,6.00
2023-01-19T17:44:55.369Z,5.90
2023-01-19T17:47:25.584Z,5.80
2023-01-19T17:49:52.501Z,5.70
2023-01-19T17:52:19.461Z,5.70
2023-01-19T17:54:46.779Z,5.60
2023-01-19T17:57:14.664Z,5.50
2023-01-19T17:59:45.808Z,5.40
2023-01-19T18:02:15.478Z,5.40
2023-01-19T18:04:42.596Z,5.40
2023-01-19T18:07:09.480Z,5.30
2023-01-19T18:09:36.434Z,5.30
2023-01-19T18:12:04.633Z,5.20
2023-01-19T18:14:31.531Z,5.20
2023-01-19T18:16:58.588Z,5.20
2023-01-19T18:19:25.521Z,5.10
2023-01-19T18:21:55.372Z,5.10
2023-01-19T18:24:22.257Z,5.10
2023-01-19T18:26:49.217Z,5.10
2023-01-19T18:29:19.428Z,5.00
2023-01-19T18:31:46.413Z,5.00
2023-01-19T18:34:14.381Z,5.00
2023-01-19T18:36:41.281Z,5.00
2023-01-19T18:39:09.526Z,5.00
2023-01-19T18:41:41.769Z,5.00
2023-01-19T18:44:11.745Z,4.90
2023-01-19T18:46:39.277Z,4.90
2023-01-19T18:49:06.435Z,4.90
2023-01-19T18:51:33.348Z,4.90
2023-01-19T18:54:01.204Z,4.80
2023-01-19T18:56:28.235Z,4.80
2023-01-19T18:58:55.345Z,4.80
2023-01-19T19:01:24.834Z,4.70
2023-01-19T19:03:58.432Z,4.60
2023-01-19T19:06:27.225Z,4.60
2023-01-19T19:08:59.463Z,4.50
2023-01-19T19:11:27.237Z,4.50
2023-01-19T19:13:56.535Z,4.40
2023-01-19T19:16:23.659Z,4.50
2023-01-19T19:18:50.807Z,4.40
2023-01-19T19:21:19.068Z,4.40
2023-01-19T19:23:56.700Z,4.40
2023-01-19T19:26:28.410Z,4.40
2023-01-19T19:28:55.624Z,4.40
2023-01-19T19:31:29.379Z,4.30
2023-01-19T19:33:57.623Z,4.30
2023-01-19T19:36:25.880Z,4.20
2023-01-19T19:38:52.806Z,4.20
2023-01-19T19:41:22.212Z,4.20
2023-01-19T19:43:49.510Z,4.10
2023-01-19T19:46:20.114Z,4.10
2023-01-19T19:48:48.491Z,4.00
2023-01-19T19:51:19.716Z,4.00
2023-01-19T19:53:50.177Z,4.00
2023-01-19T19:56:21.463Z,4.00
2023-01-19T19:58:49.691Z,4.00
2023-01-19T20:01:33.768Z,4.00
2023-01-19T20:04:08.968Z,4.00
2023-01-19T20:06:42.862Z,4.00
2023-01-19T20:09:12.781Z,4.00
2023-01-19T20:11:45.106Z,4.00
2023-01-19T20:14:13.121Z,4.10
2023-01-19T20:16:40.304Z,4.10
2023-01-19T20:19:07.868Z,4.10
2023-01-19T20:21:41.810Z,4.10
2023-01-19T20:24:17.846Z,4.10
2023-01-19T20:26:48.967Z,4.10
2023-01-19T20:29:31.025Z,4.10
2023-01-19T20:34:38.954Z,4.10
2023-01-19T20:37:06.993Z,4.10
2023-01-19T20:39:37.379Z,4.10
2023-01-19T20:42:05.552Z,4.10
2023-01-19T20:44:32.585Z,4.00
2023-01-19T20:47:01.869Z,4.00
2023-01-19T20:49:29.858Z,4.00
2023-01-19T20:51:56.848Z,4.00
2023-01-19T20:54:27.959Z,4.00
2023-01-19T20:56:58.082Z,4.00
2023-01-19T20:59:25.008Z,4.00
2023-01-19T21:01:52.273Z,4.00
2023-01-19T21:04:20.671Z,4.00
2023-01-19T21:06:47.537Z,4.00
2023-01-19T21:09:14.527Z,4.00
2023-01-19T21:11:41.436Z,4.10
2023-01-19T21:14:15.973Z,4.10
2023-01-19T21:16:43.018Z,4.20
2023-01-19T21:19:11.217Z,4.20
2023-01-19T21:21:38.107Z,4.30
2023-01-19T21:24:05.395Z,4.30
2023-01-19T21:26:33.600Z,4.30
2023-01-19T21:29:04.159Z,4.30
2023-01-19T21:31:31.506Z,4.30
2023-01-19T21:33:59.220Z,4.30
2023-01-19T21:36:26.759Z,4.30
2023-01-19T21:38:55.704Z,4.40
2023-01-19T21:41:22.834Z,4.50
2023-01-19T21:43:52.462Z,4.50
2023-01-19T21:46:32.243Z,4.60
2023-01-19T21:49:04.809Z,4.60
2023-01-19T21:51:34.757Z,4.70
2023-01-19T21:54:03.304Z,4.70
2023-01-19T21:56:31.621Z,4.80
2023-01-19T21:59:02.261Z,4.80
2023-01-19T22:01:32.281Z,4.70
2023-01-19T22:04:01.190Z,4.70
2023-01-19T22:06:31.471Z,4.60
2023-01-19T22:08:58.559Z,4.60
2023-01-19T22:11:25.525Z,4.60
2023-01-19T22:13:52.976Z,4.60
2023-01-19T22:16:21.879Z,4.60
2023-01-19T22:18:57.635Z,4.70
2023-01-19T22:21:29.794Z,4.70
2023-01-19T22:23:59.202Z,4.80
2023-01-19T22:26:27.491Z,4.80
2023-01-19T22:28:56.179Z,4.80
2023-01-19T22:31:24.374Z,4.70
2023-01-19T22:33:52.672Z,4.60
2023-01-19T22:36:22.610Z,4.50
2023-01-19T22:38:55.216Z,4.30
2023-01-19T22:41:26.087Z,4.20
2023-01-19T22:43:55.349Z,4.10
2023-01-19T22:46:27.927Z,4.00
2023-01-19T22:48:55.776Z,3.90
2023-01-19T22:51:24.631Z,3.80
2023-01-19T22:53:52.048Z,3.70
2023-01-19T22:56:28.587Z,3.70
2023-01-19T22:58:55.996Z,3.70
2023-01-19T23:01:28.550Z,3.60
2023-01-19T23:03:58.093Z,3.60
2023-01-19T23:06:27.623Z,3.60
2023-01-19T23:08:56.494Z,3.60
2023-01-19T23:11:26.582Z,3.50
2023-01-19T23:13:54.282Z,3.50
2023-01-19T23:16:23.756Z,3.50
2023-01-19T23:18:54.183Z,3.40
2023-01-19T23:21:23.509Z,3.30
2023-01-19T23:23:54.819Z,3.30
2023-01-19T23:26:25.514Z,3.20
2023-01-19T23:29:01.724Z,3.20
2023-01-19T23:31:33.087Z,3.20
2023-01-19T23:34:02.824Z,3.20
2023-01-19T23:36:31.804Z,3.20
2023-01-19T23:39:08.615Z,3.20
2023-01-19T23:41:35.650Z,3.20
2023-01-19T23:44:03.249Z,3.20
2023-01-19T23:46:30.288Z,3.20
2023-01-19T23:48:59.639Z,3.20
2023-01-19T23:51:29.405Z,3.20
2023-01-19T23:53:57.802Z,3.20
2023-01-19T23:56:30.851Z,3.20
2023-01-19T23:59:05.673Z,3.20
